sensor_id;sensor_type;location;lat;lon;timestamp;P1;durP1;ratioP1;P2;durP2;ratioP2
22829;SDS011;11581;51.250;6.778;2023-01-10T00:01:54;6.35;;;2.67;;
22829;SDS011;11581;51.250;6.778;2023-01-10T00:04:21;5.25;;;2.15;;
22829;SDS011;11581;51.250;6.778;2023-01-10T00:06:50;6.70;;;2.20;;
22829;SDS011;11581;51.250;6.778;2023-01-10T00:09:17;6.88;;;2.70;;
22829;SDS011;11581;51.250;6.778;2023-01-10T00:11:45;5.90;;;2.22;;
22829;SDS011;11581;51.250;6.778;2023-01-10T00:14:43;8.30;;;2.70;;
22829;SDS011;11581;51.250;6.778;2023-01-10T00:17:10;5.25;;;1.85;;
22829;SDS011;11581;51.250;6.778;2023-01-10T00:19:37;4.97;;;2.42;;
22829;SDS011;11581;51.250;6.778;2023-01-10T00:22:03;8.48;;;2.40;;
22829;SDS011;11581;51.250;6.778;2023-01-10T00:24:37;6.60;;;2.40;;
22829;SDS011;11581;51.250;6.778;2023-01-10T00:27:07;5.63;;;1.95;;
22829;SDS011;11581;51.250;6.778;2023-01-10T00:29:40;5.78;;;2.00;;
22829;SDS011;11581;51.250;6.778;2023-01-10T00:32:06;5.93;;;2.38;;
22829;SDS011;11581;51.250;6.778;2023-01-10T00:34:33;8.90;;;2.20;;
22829;SDS011;11581;51.250;6.778;2023-01-10T00:37:00;7.68;;;2.15;;
22829;SDS011;11581;51.250;6.778;2023-01-10T00:39:27;6.22;;;1.83;;
22829;SDS011;11581;51.250;6.778;2023-01-10T00:41:53;11.25;;;2.58;;
22829;SDS011;11581;51.250;6.778;2023-01-10T00:44:39;6.75;;;1.67;;
22829;SDS011;11581;51.250;6.778;2023-01-10T00:47:06;8.35;;;2.03;;
22829;SDS011;11581;51.250;6.778;2023-01-10T00:49:32;9.07;;;2.28;;
22829;SDS011;11581;51.250;6.778;2023-01-10T00:51:59;5.90;;;1.80;;
22829;SDS011;11581;51.250;6.778;2023-01-10T00:54:26;5.97;;;1.60;;
22829;SDS011;11581;51.250;6.778;2023-01-10T00:56:53;6.07;;;2.03;;
22829;SDS011;11581;51.250;6.778;2023-01-10T00:59:19;7.13;;;1.90;;
22829;SDS011;11581;51.250;6.778;2023-01-10T01:01:47;8.38;;;2.53;;
22829;SDS011;11581;51.250;6.778;2023-01-10T01:04:14;6.03;;;1.98;;
22829;SDS011;11581;51.250;6.778;2023-01-10T01:06:42;7.53;;;1.85;;
22829;SDS011;11581;51.250;6.778;2023-01-10T01:09:08;6.07;;;1.77;;
22829;SDS011;11581;51.250;6.778;2023-01-10T01:11:35;8.15;;;2.08;;
22829;SDS011;11581;51.250;6.778;2023-01-10T01:14:01;9.30;;;2.45;;
22829;SDS011;11581;51.250;6.778;2023-01-10T01:16:28;8.10;;;2.08;;
22829;SDS011;11581;51.250;6.778;2023-01-10T01:18:56;6.57;;;1.85;;
22829;SDS011;11581;51.250;6.778;2023-01-10T01:21:23;7.63;;;1.67;;
22829;SDS011;11581;51.250;6.778;2023-01-10T01:23:52;8.77;;;1.75;;
22829;SDS011;11581;51.250;6.778;2023-01-10T01:26:20;7.53;;;2.00;;
22829;SDS011;11581;51.250;6.778;2023-01-10T01:28:47;6.25;;;1.98;;
22829;SDS011;11581;51.250;6.778;2023-01-10T01:31:14;6.50;;;1.40;;
22829;SDS011;11581;51.250;6.778;2023-01-10T01:33:40;5.05;;;1.60;;
22829;SDS011;11581;51.250;6.778;2023-01-10T01:36:08;6.82;;;1.92;;
22829;SDS011;11581;51.250;6.778;2023-01-10T01:38:36;6.00;;;1.83;;
22829;SDS011;11581;51.250;6.778;2023-01-10T01:41:03;9.05;;;1.95;;
22829;SDS011;11581;51.250;6.778;2023-01-10T01:44:01;6.22;;;1.52;;
22829;SDS011;11581;51.250;6.778;2023-01-10T01:46:29;7.72;;;1.80;;
22829;SDS011;11581;51.250;6.778;2023-01-10T01:48:59;9.20;;;2.05;;
22829;SDS011;11581;51.250;6.778;2023-01-10T01:51:31;8.18;;;1.90;;
22829;SDS011;11581;51.250;6.778;2023-01-10T01:53:59;11.38;;;2.40;;
22829;SDS011;11581;51.250;6.778;2023-01-10T01:56:31;7.95;;;2.15;;
22829;SDS011;11581;51.250;6.778;2023-01-10T01:59:04;8.57;;;1.95;;
22829;SDS011;11581;51.250;6.778;2023-01-10T02:01:34;5.63;;;1.85;;
22829;SDS011;11581;51.250;6.778;2023-01-10T02:04:12;14.40;;;1.98;;
22829;SDS011;11581;51.250;6.778;2023-01-10T02:06:44;7.32;;;1.80;;
22829;SDS011;11581;51.250;6.778;2023-01-10T02:09:15;10.45;;;2.45;;
22829;SDS011;11581;51.250;6.778;2023-01-10T02:11:46;11.00;;;2.50;;
22829;SDS011;11581;51.250;6.778;2023-01-10T02:14:13;6.13;;;1.95;;
22829;SDS011;11581;51.250;6.778;2023-01-10T02:16:40;5.78;;;1.83;;
22829;SDS011;11581;51.250;6.778;2023-01-10T02:19:07;7.15;;;1.95;;
22829;SDS011;11581;51.250;6.778;2023-01-10T02:21:50;7.15;;;1.80;;
22829;SDS011;11581;51.250;6.778;2023-01-10T02:24:55;9.35;;;2.08;;
22829;SDS011;11581;51.250;6.778;2023-01-10T02:27:37;7.03;;;2.22;;
22829;SDS011;11581;51.250;6.778;2023-01-10T02:30:32;5.88;;;1.55;;
22829;SDS011;11581;51.250;6.778;2023-01-10T02:33:14;8.40;;;2.55;;
22829;SDS011;11581;51.250;6.778;2023-01-10T02:38:48;11.55;;;2.40;;
22829;SDS011;11581;51.250;6.778;2023-01-10T02:41:21;7.28;;;1.95;;
22829;SDS011;11581;51.250;6.778;2023-01-10T02:43:56;7.60;;;2.10;;
22829;SDS011;11581;51.250;6.778;2023-01-10T02:46:28;6.95;;;1.98;;
22829;SDS011;11581;51.250;6.778;2023-01-10T02:48:57;7.80;;;2.50;;
22829;SDS011;11581;51.250;6.778;2023-01-10T02:51:24;8.52;;;2.35;;
22829;SDS011;11581;51.250;6.778;2023-01-10T02:53:53;7.38;;;2.05;;
22829;SDS011;11581;51.250;6.778;2023-01-10T02:56:32;10.05;;;2.58;;
22829;SDS011;11581;51.250;6.778;2023-01-10T03:02:09;11.55;;;2.20;;
22829;SDS011;11581;51.250;6.778;2023-01-10T03:04:48;8.70;;;2.42;;
22829;SDS011;11581;51.250;6.778;2023-01-10T03:07:22;9.57;;;2.35;;
22829;SDS011;11581;51.250;6.778;2023-01-10T03:09:55;7.82;;;2.40;;
22829;SDS011;11581;51.250;6.778;2023-01-10T03:12:27;9.82;;;2.88;;
22829;SDS011;11581;51.250;6.778;2023-01-10T03:15:00;9.85;;;2.47;;
22829;SDS011;11581;51.250;6.778;2023-01-10T03:17:30;13.55;;;2.80;;
22829;SDS011;11581;51.250;6.778;2023-01-10T03:19:59;7.28;;;2.13;;
22829;SDS011;11581;51.250;6.778;2023-01-10T03:22:29;8.85;;;2.28;;
22829;SDS011;11581;51.250;6.778;2023-01-10T03:24:58;7.78;;;2.20;;
22829;SDS011;11581;51.250;6.778;2023-01-10T03:27:28;8.45;;;2.25;;
22829;SDS011;11581;51.250;6.778;2023-01-10T03:30:02;5.82;;;2.15;;
22829;SDS011;11581;51.250;6.778;2023-01-10T03:32:36;13.38;;;2.58;;
22829;SDS011;11581;51.250;6.778;2023-01-10T03:35:04;8.65;;;2.03;;
22829;SDS011;11581;51.250;6.778;2023-01-10T03:37:33;4.80;;;1.40;;
22829;SDS011;11581;51.250;6.778;2023-01-10T03:40:04;5.68;;;2.05;;
22829;SDS011;11581;51.250;6.778;2023-01-10T03:42:35;7.35;;;2.08;;
22829;SDS011;11581;51.250;6.778;2023-01-10T03:45:24;9.38;;;1.85;;
22829;SDS011;11581;51.250;6.778;2023-01-10T03:47:54;6.13;;;1.95;;
22829;SDS011;11581;51.250;6.778;2023-01-10T03:50:25;7.53;;;1.95;;
22829;SDS011;11581;51.250;6.778;2023-01-10T03:52:53;8.60;;;2.00;;
22829;SDS011;11581;51.250;6.778;2023-01-10T03:55:21;7.68;;;1.85;;
22829;SDS011;11581;51.250;6.778;2023-01-10T03:57:51;7.95;;;1.88;;
22829;SDS011;11581;51.250;6.778;2023-01-10T04:00:18;8.50;;;1.70;;
22829;SDS011;11581;51.250;6.778;2023-01-10T04:02:45;8.82;;;2.22;;
22829;SDS011;11581;51.250;6.778;2023-01-10T04:05:12;9.23;;;2.28;;
22829;SDS011;11581;51.250;6.778;2023-01-10T04:07:40;8.73;;;2.33;;
22829;SDS011;11581;51.250;6.778;2023-01-10T04:10:07;7.47;;;1.85;;
22829;SDS011;11581;51.250;6.778;2023-01-10T04:12:34;9.90;;;2.30;;
22829;SDS011;11581;51.250;6.778;2023-01-10T04:15:01;5.60;;;1.88;;
22829;SDS011;11581;51.250;6.778;2023-01-10T04:17:28;6.82;;;2.22;;
22829;SDS011;11581;51.250;6.778;2023-01-10T04:19:54;10.13;;;2.03;;
22829;SDS011;11581;51.250;6.778;2023-01-10T04:22:21;10.43;;;2.30;;
22829;SDS011;11581;51.250;6.778;2023-01-10T04:24:49;7.90;;;1.80;;
22829;SDS011;11581;51.250;6.778;2023-01-10T04:27:16;8.35;;;2.10;;
22829;SDS011;11581;51.250;6.778;2023-01-10T04:29:42;10.10;;;2.10;;
22829;SDS011;11581;51.250;6.778;2023-01-10T04:32:09;7.70;;;1.98;;
22829;SDS011;11581;51.250;6.778;2023-01-10T04:34:35;9.93;;;2.67;;
22829;SDS011;11581;51.250;6.778;2023-01-10T04:37:02;7.53;;;2.08;;
22829;SDS011;11581;51.250;6.778;2023-01-10T04:39:29;16.23;;;2.33;;
22829;SDS011;11581;51.250;6.778;2023-01-10T04:41:56;8.45;;;2.20;;
22829;SDS011;11581;51.250;6.778;2023-01-10T04:44:23;11.73;;;2.45;;
22829;SDS011;11581;51.250;6.778;2023-01-10T04:46:50;24.80;;;3.30;;
22829;SDS011;11581;51.250;6.778;2023-01-10T04:49:16;9.80;;;2.75;;
22829;SDS011;11581;51.250;6.778;2023-01-10T04:51:43;11.45;;;2.33;;
22829;SDS011;11581;51.250;6.778;2023-01-10T04:54:09;10.35;;;2.63;;
22829;SDS011;11581;51.250;6.778;2023-01-10T04:56:36;10.38;;;2.60;;
22829;SDS011;11581;51.250;6.778;2023-01-10T04:59:04;9.73;;;2.80;;
22829;SDS011;11581;51.250;6.778;2023-01-10T05:01:31;12.25;;;2.85;;
22829;SDS011;11581;51.250;6.778;2023-01-10T05:03:59;9.43;;;2.80;;
22829;SDS011;11581;51.250;6.778;2023-01-10T05:06:27;11.20;;;2.35;;
22829;SDS011;11581;51.250;6.778;2023-01-10T05:08:53;12.00;;;2.97;;
22829;SDS011;11581;51.250;6.778;2023-01-10T05:11:20;10.40;;;2.47;;
22829;SDS011;11581;51.250;6.778;2023-01-10T05:13:47;7.57;;;2.35;;
22829;SDS011;11581;51.250;6.778;2023-01-10T05:16:15;11.80;;;2.65;;
22829;SDS011;11581;51.250;6.778;2023-01-10T05:18:42;8.35;;;2.20;;
22829;SDS011;11581;51.250;6.778;2023-01-10T05:21:09;10.70;;;2.40;;
22829;SDS011;11581;51.250;6.778;2023-01-10T05:23:37;12.95;;;2.92;;
22829;SDS011;11581;51.250;6.778;2023-01-10T05:26:04;13.10;;;3.03;;
22829;SDS011;11581;51.250;6.778;2023-01-10T05:28:32;13.55;;;3.00;;
22829;SDS011;11581;51.250;6.778;2023-01-10T05:30:59;12.48;;;3.60;;
22829;SDS011;11581;51.250;6.778;2023-01-10T05:33:27;15.07;;;3.47;;
22829;SDS011;11581;51.250;6.778;2023-01-10T05:35:53;12.93;;;3.70;;
22829;SDS011;11581;51.250;6.778;2023-01-10T05:38:20;18.55;;;2.80;;
22829;SDS011;11581;51.250;6.778;2023-01-10T05:40:47;16.15;;;3.10;;
22829;SDS011;11581;51.250;6.778;2023-01-10T05:43:13;11.48;;;3.00;;
22829;SDS011;11581;51.250;6.778;2023-01-10T05:45:40;18.30;;;3.08;;
22829;SDS011;11581;51.250;6.778;2023-01-10T05:48:07;13.90;;;3.13;;
22829;SDS011;11581;51.250;6.778;2023-01-10T05:50:35;9.00;;;1.98;;
22829;SDS011;11581;51.250;6.778;2023-01-10T05:53:02;7.38;;;2.22;;
22829;SDS011;11581;51.250;6.778;2023-01-10T05:55:30;12.43;;;3.08;;
22829;SDS011;11581;51.250;6.778;2023-01-10T05:57:56;11.32;;;2.38;;
22829;SDS011;11581;51.250;6.778;2023-01-10T06:00:23;14.32;;;3.20;;
22829;SDS011;11581;51.250;6.778;2023-01-10T06:02:52;15.98;;;2.40;;
22829;SDS011;11581;51.250;6.778;2023-01-10T06:05:19;10.43;;;2.33;;
22829;SDS011;11581;51.250;6.778;2023-01-10T06:07:47;15.48;;;2.15;;
22829;SDS011;11581;51.250;6.778;2023-01-10T06:10:14;12.70;;;2.35;;
22829;SDS011;11581;51.250;6.778;2023-01-10T06:12:42;13.93;;;2.80;;
22829;SDS011;11581;51.250;6.778;2023-01-10T06:15:09;10.77;;;2.08;;
22829;SDS011;11581;51.250;6.778;2023-01-10T06:17:36;9.00;;;2.25;;
22829;SDS011;11581;51.250;6.778;2023-01-10T06:20:03;11.85;;;2.47;;
22829;SDS011;11581;51.250;6.778;2023-01-10T06:22:30;16.05;;;2.80;;
22829;SDS011;11581;51.250;6.778;2023-01-10T06:24:58;9.82;;;2.42;;
22829;SDS011;11581;51.250;6.778;2023-01-10T06:27:25;13.68;;;3.30;;
22829;SDS011;11581;51.250;6.778;2023-01-10T06:29:51;17.50;;;3.13;;
22829;SDS011;11581;51.250;6.778;2023-01-10T06:32:18;16.50;;;3.63;;
22829;SDS011;11581;51.250;6.778;2023-01-10T06:34:44;16.85;;;2.95;;
22829;SDS011;11581;51.250;6.778;2023-01-10T06:37:11;16.38;;;3.08;;
22829;SDS011;11581;51.250;6.778;2023-01-10T06:39:37;13.55;;;2.95;;
22829;SDS011;11581;51.250;6.778;2023-01-10T06:42:06;14.13;;;2.80;;
22829;SDS011;11581;51.250;6.778;2023-01-10T06:44:32;14.48;;;2.72;;
22829;SDS011;11581;51.250;6.778;2023-01-10T06:46:59;12.68;;;3.00;;
22829;SDS011;11581;51.250;6.778;2023-01-10T06:49:25;12.15;;;2.50;;
22829;SDS011;11581;51.250;6.778;2023-01-10T06:51:52;13.60;;;2.67;;
22829;SDS011;11581;51.250;6.778;2023-01-10T06:54:18;12.52;;;2.85;;
22829;SDS011;11581;51.250;6.778;2023-01-10T06:56:46;12.55;;;2.30;;
22829;SDS011;11581;51.250;6.778;2023-01-10T06:59:14;11.98;;;2.85;;
22829;SDS011;11581;51.250;6.778;2023-01-10T07:01:40;12.63;;;3.28;;
22829;SDS011;11581;51.250;6.778;2023-01-10T07:04:07;15.52;;;3.58;;
22829;SDS011;11581;51.250;6.778;2023-01-10T07:06:35;12.88;;;3.15;;
22829;SDS011;11581;51.250;6.778;2023-01-10T07:09:02;12.32;;;2.70;;
22829;SDS011;11581;51.250;6.778;2023-01-10T07:11:29;11.50;;;2.85;;
22829;SDS011;11581;51.250;6.778;2023-01-10T07:13:56;18.05;;;3.28;;
22829;SDS011;11581;51.250;6.778;2023-01-10T07:16:24;18.35;;;3.05;;
22829;SDS011;11581;51.250;6.778;2023-01-10T07:18:51;21.63;;;3.60;;
22829;SDS011;11581;51.250;6.778;2023-01-10T07:21:17;10.65;;;2.72;;
22829;SDS011;11581;51.250;6.778;2023-01-10T07:23:46;16.20;;;3.15;;
22829;SDS011;11581;51.250;6.778;2023-01-10T07:26:13;18.73;;;3.63;;
22829;SDS011;11581;51.250;6.778;2023-01-10T07:28:41;15.55;;;3.30;;
22829;SDS011;11581;51.250;6.778;2023-01-10T07:31:08;10.63;;;2.83;;
22829;SDS011;11581;51.250;6.778;2023-01-10T07:33:43;11.48;;;3.03;;
22829;SDS011;11581;51.250;6.778;2023-01-10T07:38:36;15.38;;;2.70;;
22829;SDS011;11581;51.250;6.778;2023-01-10T07:41:03;14.73;;;3.47;;
22829;SDS011;11581;51.250;6.778;2023-01-10T07:43:30;20.38;;;3.20;;
22829;SDS011;11581;51.250;6.778;2023-01-10T07:45:57;14.23;;;3.22;;
22829;SDS011;11581;51.250;6.778;2023-01-10T07:48:24;14.32;;;3.45;;
22829;SDS011;11581;51.250;6.778;2023-01-10T07:50:55;17.20;;;3.13;;
22829;SDS011;11581;51.250;6.778;2023-01-10T07:53:22;11.13;;;2.72;;
22829;SDS011;11581;51.250;6.778;2023-01-10T07:55:49;16.08;;;3.33;;
22829;SDS011;11581;51.250;6.778;2023-01-10T07:58:16;15.88;;;3.10;;
22829;SDS011;11581;51.250;6.778;2023-01-10T08:00:42;16.77;;;3.50;;
22829;SDS011;11581;51.250;6.778;2023-01-10T08:03:10;14.05;;;3.58;;
22829;SDS011;11581;51.250;6.778;2023-01-10T08:05:37;18.65;;;3.83;;
22829;SDS011;11581;51.250;6.778;2023-01-10T08:08:06;19.75;;;3.58;;
22829;SDS011;11581;51.250;6.778;2023-01-10T08:10:33;18.20;;;3.00;;
22829;SDS011;11581;51.250;6.778;2023-01-10T08:13:00;11.27;;;2.85;;
22829;SDS011;11581;51.250;6.778;2023-01-10T08:15:28;10.95;;;2.50;;
22829;SDS011;11581;51.250;6.778;2023-01-10T08:17:57;15.55;;;3.60;;
22829;SDS011;11581;51.250;6.778;2023-01-10T08:20:25;19.55;;;4.25;;
22829;SDS011;11581;51.250;6.778;2023-01-10T08:22:51;17.02;;;3.45;;
22829;SDS011;11581;51.250;6.778;2023-01-10T08:25:20;18.10;;;3.00;;
22829;SDS011;11581;51.250;6.778;2023-01-10T08:27:46;19.52;;;3.65;;
22829;SDS011;11581;51.250;6.778;2023-01-10T08:30:13;21.52;;;4.70;;
22829;SDS011;11581;51.250;6.778;2023-01-10T08:32:40;15.88;;;3.38;;
22829;SDS011;11581;51.250;6.778;2023-01-10T08:35:07;15.18;;;3.60;;
22829;SDS011;11581;51.250;6.778;2023-01-10T08:37:34;11.23;;;3.22;;
22829;SDS011;11581;51.250;6.778;2023-01-10T08:40:01;12.98;;;3.08;;
22829;SDS011;11581;51.250;6.778;2023-01-10T08:42:29;16.42;;;3.17;;
22829;SDS011;11581;51.250;6.778;2023-01-10T08:44:55;15.90;;;3.47;;
22829;SDS011;11581;51.250;6.778;2023-01-10T08:47:22;13.60;;;3.67;;
22829;SDS011;11581;51.250;6.778;2023-01-10T08:49:49;17.35;;;3.00;;
22829;SDS011;11581;51.250;6.778;2023-01-10T08:52:16;14.70;;;3.33;;
22829;SDS011;11581;51.250;6.778;2023-01-10T08:54:42;16.83;;;3.78;;
22829;SDS011;11581;51.250;6.778;2023-01-10T08:57:09;16.42;;;3.13;;
22829;SDS011;11581;51.250;6.778;2023-01-10T08:59:37;10.63;;;3.10;;
22829;SDS011;11581;51.250;6.778;2023-01-10T09:02:04;15.98;;;4.00;;
22829;SDS011;11581;51.250;6.778;2023-01-10T09:04:32;11.90;;;2.90;;
22829;SDS011;11581;51.250;6.778;2023-01-10T09:06:59;15.10;;;2.88;;
22829;SDS011;11581;51.250;6.778;2023-01-10T09:09:25;16.35;;;3.25;;
22829;SDS011;11581;51.250;6.778;2023-01-10T09:11:52;13.98;;;3.40;;
22829;SDS011;11581;51.250;6.778;2023-01-10T09:14:19;12.95;;;2.88;;
22829;SDS011;11581;51.250;6.778;2023-01-10T09:16:47;15.90;;;2.83;;
22829;SDS011;11581;51.250;6.778;2023-01-10T09:19:15;17.45;;;3.30;;
22829;SDS011;11581;51.250;6.778;2023-01-10T09:21:42;14.70;;;2.83;;
22829;SDS011;11581;51.250;6.778;2023-01-10T09:24:09;16.92;;;3.95;;
22829;SDS011;11581;51.250;6.778;2023-01-10T09:26:35;13.27;;;3.38;;
22829;SDS011;11581;51.250;6.778;2023-01-10T09:29:02;14.23;;;3.50;;
22829;SDS011;11581;51.250;6.778;2023-01-10T09:31:29;15.35;;;3.28;;
22829;SDS011;11581;51.250;6.778;2023-01-10T09:33:57;19.95;;;3.42;;
22829;SDS011;11581;51.250;6.778;2023-01-10T09:36:23;14.90;;;3.45;;
22829;SDS011;11581;51.250;6.778;2023-01-10T09:38:50;11.52;;;2.55;;
22829;SDS011;11581;51.250;6.778;2023-01-10T09:41:21;16.58;;;3.28;;
22829;SDS011;11581;51.250;6.778;2023-01-10T09:44:00;13.20;;;2.88;;
22829;SDS011;11581;51.250;6.778;2023-01-10T09:46:33;9.25;;;2.83;;
22829;SDS011;11581;51.250;6.778;2023-01-10T09:49:13;9.00;;;2.42;;
22829;SDS011;11581;51.250;6.778;2023-01-10T09:51:48;13.45;;;2.63;;
22829;SDS011;11581;51.250;6.778;2023-01-10T09:54:17;12.73;;;3.38;;
22829;SDS011;11581;51.250;6.778;2023-01-10T09:56:48;18.63;;;3.13;;
22829;SDS011;11581;51.250;6.778;2023-01-10T09:59:18;13.52;;;3.60;;
22829;SDS011;11581;51.250;6.778;2023-01-10T10:01:49;13.43;;;3.60;;
22829;SDS011;11581;51.250;6.778;2023-01-10T10:04:22;15.63;;;3.33;;
22829;SDS011;11581;51.250;6.778;2023-01-10T10:06:55;16.98;;;3.40;;
22829;SDS011;11581;51.250;6.778;2023-01-10T10:09:23;17.77;;;3.45;;
22829;SDS011;11581;51.250;6.778;2023-01-10T10:11:57;18.35;;;3.70;;
22829;SDS011;11581;51.250;6.778;2023-01-10T10:14:39;14.10;;;3.15;;
22829;SDS011;11581;51.250;6.778;2023-01-10T10:17:23;20.00;;;3.45;;
22829;SDS011;11581;51.250;6.778;2023-01-10T10:20:01;11.13;;;2.97;;
22829;SDS011;11581;51.250;6.778;2023-01-10T10:22:43;15.27;;;3.05;;
22829;SDS011;11581;51.250;6.778;2023-01-10T10:25:22;14.88;;;2.55;;
22829;SDS011;11581;51.250;6.778;2023-01-10T10:28:06;21.48;;;2.67;;
22829;SDS011;11581;51.250;6.778;2023-01-10T10:30:56;12.20;;;3.28;;
22829;SDS011;11581;51.250;6.778;2023-01-10T10:33:35;14.45;;;3.08;;
22829;SDS011;11581;51.250;6.778;2023-01-10T10:36:13;11.13;;;2.90;;
22829;SDS011;11581;51.250;6.778;2023-01-10T10:38:47;11.60;;;3.15;;
22829;SDS011;11581;51.250;6.778;2023-01-10T10:41:17;14.57;;;3.28;;
22829;SDS011;11581;51.250;6.778;2023-01-10T10:43:53;10.88;;;2.80;;
22829;SDS011;11581;51.250;6.778;2023-01-10T10:46:21;17.70;;;2.65;;
22829;SDS011;11581;51.250;6.778;2023-01-10T10:48:48;11.80;;;2.97;;
22829;SDS011;11581;51.250;6.778;2023-01-10T10:51:24;10.65;;;2.75;;
22829;SDS011;11581;51.250;6.778;2023-01-10T10:53:54;13.80;;;3.15;;
22829;SDS011;11581;51.250;6.778;2023-01-10T10:56:22;13.60;;;3.20;;
22829;SDS011;11581;51.250;6.778;2023-01-10T10:58:52;12.02;;;2.50;;
22829;SDS011;11581;51.250;6.778;2023-01-10T11:01:21;11.95;;;2.72;;
22829;SDS011;11581;51.250;6.778;2023-01-10T11:03:49;10.93;;;2.78;;
22829;SDS011;11581;51.250;6.778;2023-01-10T11:06:20;13.15;;;2.30;;
22829;SDS011;11581;51.250;6.778;2023-01-10T11:08:50;8.93;;;2.72;;
22829;SDS011;11581;51.250;6.778;2023-01-10T11:11:23;13.75;;;2.95;;
22829;SDS011;11581;51.250;6.778;2023-01-10T11:13:54;13.75;;;2.20;;
22829;SDS011;11581;51.250;6.778;2023-01-10T11:16:26;7.97;;;2.50;;
22829;SDS011;11581;51.250;6.778;2023-01-10T11:19:08;11.07;;;2.75;;
22829;SDS011;11581;51.250;6.778;2023-01-10T11:21:47;10.95;;;2.95;;
22829;SDS011;11581;51.250;6.778;2023-01-10T11:27:17;13.25;;;3.13;;
22829;SDS011;11581;51.250;6.778;2023-01-10T11:29:46;15.15;;;3.63;;
22829;SDS011;11581;51.250;6.778;2023-01-10T11:32:16;13.75;;;3.25;;
22829;SDS011;11581;51.250;6.778;2023-01-10T11:34:46;13.18;;;3.15;;
22829;SDS011;11581;51.250;6.778;2023-01-10T11:37:19;10.20;;;2.45;;
22829;SDS011;11581;51.250;6.778;2023-01-10T11:42:50;16.65;;;3.35;;
22829;SDS011;11581;51.250;6.778;2023-01-10T11:45:22;9.52;;;2.50;;
22829;SDS011;11581;51.250;6.778;2023-01-10T11:47:52;15.18;;;3.10;;
22829;SDS011;11581;51.250;6.778;2023-01-10T11:50:22;10.52;;;3.10;;
22829;SDS011;11581;51.250;6.778;2023-01-10T11:52:51;14.95;;;3.05;;
22829;SDS011;11581;51.250;6.778;2023-01-10T11:55:20;11.18;;;3.75;;
22829;SDS011;11581;51.250;6.778;2023-01-10T11:58:00;19.80;;;4.55;;
22829;SDS011;11581;51.250;6.778;2023-01-10T12:00:34;14.77;;;3.75;;
22829;SDS011;11581;51.250;6.778;2023-01-10T12:03:18;14.73;;;3.10;;
22829;SDS011;11581;51.250;6.778;2023-01-10T12:05:51;11.98;;;2.85;;
22829;SDS011;11581;51.250;6.778;2023-01-10T12:08:26;13.13;;;3.25;;
22829;SDS011;11581;51.250;6.778;2023-01-10T12:10:59;12.45;;;3.53;;
22829;SDS011;11581;51.250;6.778;2023-01-10T12:13:28;14.05;;;2.80;;
22829;SDS011;11581;51.250;6.778;2023-01-10T12:18:41;12.35;;;3.17;;
22829;SDS011;11581;51.250;6.778;2023-01-10T12:21:09;11.65;;;2.90;;
22829;SDS011;11581;51.250;6.778;2023-01-10T12:23:38;10.20;;;2.95;;
22829;SDS011;11581;51.250;6.778;2023-01-10T12:26:09;12.57;;;2.88;;
22829;SDS011;11581;51.250;6.778;2023-01-10T12:28:38;8.88;;;2.72;;
22829;SDS011;11581;51.250;6.778;2023-01-10T12:31:09;13.68;;;3.05;;
22829;SDS011;11581;51.250;6.778;2023-01-10T12:33:39;12.80;;;2.80;;
22829;SDS011;11581;51.250;6.778;2023-01-10T12:36:17;13.02;;;2.97;;
22829;SDS011;11581;51.250;6.778;2023-01-10T12:38:57;9.82;;;2.53;;
22829;SDS011;11581;51.250;6.778;2023-01-10T12:41:34;13.57;;;3.20;;
22829;SDS011;11581;51.250;6.778;2023-01-10T12:44:27;11.40;;;2.88;;
22829;SDS011;11581;51.250;6.778;2023-01-10T12:46:59;10.50;;;2.17;;
22829;SDS011;11581;51.250;6.778;2023-01-10T12:49:31;10.90;;;2.72;;
22829;SDS011;11581;51.250;6.778;2023-01-10T12:52:03;11.68;;;2.92;;
22829;SDS011;11581;51.250;6.778;2023-01-10T12:54:33;15.52;;;2.50;;
22829;SDS011;11581;51.250;6.778;2023-01-10T12:57:02;14.57;;;2.88;;
22829;SDS011;11581;51.250;6.778;2023-01-10T12:59:38;9.45;;;2.70;;
22829;SDS011;11581;51.250;6.778;2023-01-10T13:02:11;17.45;;;2.85;;
22829;SDS011;11581;51.250;6.778;2023-01-10T13:04:43;11.50;;;2.13;;
22829;SDS011;11581;51.250;6.778;2023-01-10T13:07:14;9.85;;;2.92;;
22829;SDS011;11581;51.250;6.778;2023-01-10T13:09:42;9.88;;;2.45;;
22829;SDS011;11581;51.250;6.778;2023-01-10T13:12:12;10.57;;;2.53;;
22829;SDS011;11581;51.250;6.778;2023-01-10T13:14:46;10.90;;;1.95;;
22829;SDS011;11581;51.250;6.778;2023-01-10T13:17:19;12.57;;;2.53;;
22829;SDS011;11581;51.250;6.778;2023-01-10T13:20:17;9.13;;;2.42;;
22829;SDS011;11581;51.250;6.778;2023-01-10T13:22:57;14.38;;;2.88;;
22829;SDS011;11581;51.250;6.778;2023-01-10T13:25:26;9.63;;;2.15;;
22829;SDS011;11581;51.250;6.778;2023-01-10T13:27:57;11.13;;;2.63;;
22829;SDS011;11581;51.250;6.778;2023-01-10T13:30:30;12.32;;;2.50;;
22829;SDS011;11581;51.250;6.778;2023-01-10T13:33:00;11.15;;;2.42;;
22829;SDS011;11581;51.250;6.778;2023-01-10T13:35:36;11.57;;;2.42;;
22829;SDS011;11581;51.250;6.778;2023-01-10T13:38:13;9.65;;;2.20;;
22829;SDS011;11581;51.250;6.778;2023-01-10T13:40:54;8.82;;;2.20;;
22829;SDS011;11581;51.250;6.778;2023-01-10T13:43:30;12.07;;;2.67;;
22829;SDS011;11581;51.250;6.778;2023-01-10T13:55:28;7.85;;;2.10;;
22829;SDS011;11581;51.250;6.778;2023-01-10T13:57:59;8.27;;;2.20;;
22829;SDS011;11581;51.250;6.778;2023-01-10T14:00:42;11.68;;;2.42;;
22829;SDS011;11581;51.250;6.778;2023-01-10T14:03:44;8.70;;;2.75;;
22829;SDS011;11581;51.250;6.778;2023-01-10T14:06:17;11.23;;;2.17;;
22829;SDS011;11581;51.250;6.778;2023-01-10T14:08:51;8.45;;;2.25;;
22829;SDS011;11581;51.250;6.778;2023-01-10T14:11:19;14.27;;;2.38;;
22829;SDS011;11581;51.250;6.778;2023-01-10T14:13:49;12.02;;;2.50;;
22829;SDS011;11581;51.250;6.778;2023-01-10T14:16:26;10.68;;;2.17;;
22829;SDS011;11581;51.250;6.778;2023-01-10T14:21:29;10.10;;;2.05;;
22829;SDS011;11581;51.250;6.778;2023-01-10T14:23:59;10.45;;;2.20;;
22829;SDS011;11581;51.250;6.778;2023-01-10T14:26:28;9.07;;;2.08;;
22829;SDS011;11581;51.250;6.778;2023-01-10T14:28:58;20.17;;;2.47;;
22829;SDS011;11581;51.250;6.778;2023-01-10T14:31:27;8.40;;;1.90;;
22829;SDS011;11581;51.250;6.778;2023-01-10T14:33:55;8.65;;;1.98;;
22829;SDS011;11581;51.250;6.778;2023-01-10T14:36:26;13.32;;;2.47;;
22829;SDS011;11581;51.250;6.778;2023-01-10T14:38:57;8.75;;;2.20;;
22829;SDS011;11581;51.250;6.778;2023-01-10T14:41:28;8.93;;;2.42;;
22829;SDS011;11581;51.250;6.778;2023-01-10T14:43:59;8.87;;;2.23;;
22829;SDS011;11581;51.250;6.778;2023-01-10T14:46:30;10.80;;;2.80;;
22829;SDS011;11581;51.250;6.778;2023-01-10T14:49:15;12.65;;;2.55;;
22829;SDS011;11581;51.250;6.778;2023-01-10T14:51:45;11.02;;;2.38;;
22829;SDS011;11581;51.250;6.778;2023-01-10T14:54:14;8.30;;;1.80;;
22829;SDS011;11581;51.250;6.778;2023-01-10T14:56:43;11.30;;;2.42;;
22829;SDS011;11581;51.250;6.778;2023-01-10T14:59:20;11.35;;;3.00;;
22829;SDS011;11581;51.250;6.778;2023-01-10T15:01:51;9.82;;;2.88;;
22829;SDS011;11581;51.250;6.778;2023-01-10T15:04:20;9.88;;;2.08;;
22829;SDS011;11581;51.250;6.778;2023-01-10T15:06:49;16.60;;;2.75;;
22829;SDS011;11581;51.250;6.778;2023-01-10T15:09:20;7.40;;;2.10;;
22829;SDS011;11581;51.250;6.778;2023-01-10T15:11:46;12.73;;;2.22;;
22829;SDS011;11581;51.250;6.778;2023-01-10T15:14:15;10.65;;;2.58;;
22829;SDS011;11581;51.250;6.778;2023-01-10T15:16:44;10.15;;;2.17;;
22829;SDS011;11581;51.250;6.778;2023-01-10T15:19:16;7.68;;;2.60;;
22829;SDS011;11581;51.250;6.778;2023-01-10T15:21:45;11.45;;;2.60;;
22829;SDS011;11581;51.250;6.778;2023-01-10T15:26:57;9.70;;;2.40;;
22829;SDS011;11581;51.250;6.778;2023-01-10T15:29:25;12.85;;;2.30;;